sensor_id;sensor_type;location;lat;lon;timestamp;pressure;altitude;pressure_sealevel;temperature;humidity
58761;BME280;44529;47.464;19.014;2023-02-22T00:02:09;100236.66;;;8.98;77.76
58761;BME280;44529;47.464;19.014;2023-02-22T00:05:13;100234.47;;;9.00;77.80
58761;BME280;44529;47.464;19.014;2023-02-22T00:08:19;100229.00;;;8.91;77.94
58761;BME280;44529;47.464;19.014;2023-02-22T00:11:22;100230.16;;;8.99;77.66
58761;BME280;44529;47.464;19.014;2023-02-22T00:14:24;100232.25;;;8.88;77.93
58761;BME280;44529;47.464;19.014;2023-02-22T00:17:28;100231.78;;;8.86;78.09
58761;BME280;44529;47.464;19.014;2023-02-22T00:20:31;100236.06;;;8.73;78.14
58761;BME280;44529;47.464;19.014;2023-02-22T00:23:34;100236.38;;;8.58;78.78
58761;BME280;44529;47.464;19.014;2023-02-22T00:26:36;100240.56;;;8.50;79.37
58761;BME280;44529;47.464;19.014;2023-02-22T00:29:43;100236.53;;;8.48;79.75
58761;BME280;44529;47.464;19.014;2023-02-22T00:32:46;100241.53;;;8.40;79.63
58761;BME280;44529;47.464;19.014;2023-02-22T00:35:49;100240.59;;;8.31;79.74
58761;BME280;44529;47.464;19.014;2023-02-22T00:38:51;100246.25;;;8.30;79.56
58761;BME280;44529;47.464;19.014;2023-02-22T00:41:54;100245.00;;;8.08;80.98
58761;BME280;44529;47.464;19.014;2023-02-22T00:44:56;100244.44;;;8.11;80.86
58761;BME280;44529;47.464;19.014;2023-02-22T00:48:00;100244.78;;;8.05;81.29
58761;BME280;44529;47.464;19.014;2023-02-22T00:51:03;100243.09;;;8.09;81.19
58761;BME280;44529;47.464;19.014;2023-02-22T00:54:05;100243.03;;;8.14;80.93
58761;BME280;44529;47.464;19.014;2023-02-22T00:57:08;100241.34;;;8.18;81.42
58761;BME280;44529;47.464;19.014;2023-02-22T01:00:17;100241.84;;;8.20;81.13
58761;BME280;44529;47.464;19.014;2023-02-22T01:03:20;100240.84;;;8.16;81.03
58761;BME280;44529;47.464;19.014;2023-02-22T01:06:23;100237.03;;;8.17;81.10
58761;BME280;44529;47.464;19.014;2023-02-22T01:09:26;100246.12;;;8.21;80.81
58761;BME280;44529;47.464;19.014;2023-02-22T01:12:28;100234.66;;;8.15;80.88
58761;BME280;44529;47.464;19.014;2023-02-22T01:15:31;100228.47;;;8.15;81.09
58761;BME280;44529;47.464;19.014;2023-02-22T01:18:34;100233.66;;;8.11;81.37
58761;BME280;44529;47.464;19.014;2023-02-22T01:21:39;100232.84;;;8.11;81.35
58761;BME280;44529;47.464;19.014;2023-02-22T01:24:41;100231.03;;;8.06;81.39
58761;BME280;44529;47.464;19.014;2023-02-22T01:27:44;100230.63;;;7.99;81.99
58761;BME280;44529;47.464;19.014;2023-02-22T01:30:46;100233.59;;;7.98;81.95
58761;BME280;44529;47.464;19.014;2023-02-22T01:33:49;100231.91;;;8.02;81.72
58761;BME280;44529;47.464;19.014;2023-02-22T01:36:52;100225.81;;;7.96;81.94
58761;BME280;44529;47.464;19.014;2023-02-22T01:39:54;100228.34;;;8.06;81.61
58761;BME280;44529;47.464;19.014;2023-02-22T01:43:13;100227.13;;;7.99;81.48
58761;BME280;44529;47.464;19.014;2023-02-22T01:46:24;100226.84;;;8.00;81.75
58761;BME280;44529;47.464;19.014;2023-02-22T01:49:28;100226.03;;;8.00;81.39
58761;BME280;44529;47.464;19.014;2023-02-22T01:52:32;100224.72;;;7.97;81.81
58761;BME280;44529;47.464;19.014;2023-02-22T01:55:34;100219.94;;;7.94;81.98
58761;BME280;44529;47.464;19.014;2023-02-22T01:58:41;100222.69;;;7.89;82.12
58761;BME280;44529;47.464;19.014;2023-02-22T02:01:46;100221.97;;;7.83;82.81
58761;BME280;44529;47.464;19.014;2023-02-22T02:04:49;100223.00;;;7.87;82.13
58761;BME280;44529;47.464;19.014;2023-02-22T02:07:52;100219.44;;;7.92;82.02
58761;BME280;44529;47.464;19.014;2023-02-22T02:10:56;100215.44;;;7.90;82.10
58761;BME280;44529;47.464;19.014;2023-02-22T02:13:59;100219.87;;;7.80;82.66
58761;BME280;44529;47.464;19.014;2023-02-22T02:17:01;100223.56;;;7.84;82.44
58761;BME280;44529;47.464;19.014;2023-02-22T02:20:16;100214.22;;;7.82;82.88
58761;BME280;44529;47.464;19.014;2023-02-22T02:40:34;100208.91;;;7.77;83.58
58761;BME280;44529;47.464;19.014;2023-02-22T02:43:53;100212.31;;;7.82;83.17
58761;BME280;44529;47.464;19.014;2023-02-22T02:47:09;100218.00;;;7.81;83.37
58761;BME280;44529;47.464;19.014;2023-02-22T02:50:20;100221.47;;;7.81;83.37
58761;BME280;44529;47.464;19.014;2023-02-22T02:53:28;100221.19;;;7.83;83.25
58761;BME280;44529;47.464;19.014;2023-02-22T02:56:32;100222.22;;;7.87;83.18
58761;BME280;44529;47.464;19.014;2023-02-22T02:59:36;100227.22;;;7.94;83.09
58761;BME280;44529;47.464;19.014;2023-02-22T03:02:43;100220.44;;;7.96;82.71
58761;BME280;44529;47.464;19.014;2023-02-22T03:09:37;100222.66;;;8.08;82.12
58761;BME280;44529;47.464;19.014;2023-02-22T03:12:54;100219.25;;;8.02;82.31
58761;BME280;44529;47.464;19.014;2023-02-22T03:16:20;100214.84;;;7.93;82.84
58761;BME280;44529;47.464;19.014;2023-02-22T03:19:49;100220.50;;;7.91;82.81
58761;BME280;44529;47.464;19.014;2023-02-22T03:22:57;100220.25;;;7.93;83.14
58761;BME280;44529;47.464;19.014;2023-02-22T03:26:19;100221.97;;;7.83;83.70
58761;BME280;44529;47.464;19.014;2023-02-22T03:29:26;100221.38;;;8.05;83.09
58761;BME280;44529;47.464;19.014;2023-02-22T03:32:36;100210.25;;;7.93;82.83
58761;BME280;44529;47.464;19.014;2023-02-22T03:35:44;100220.31;;;7.87;83.44
58761;BME280;44529;47.464;19.014;2023-02-22T03:38:51;100219.22;;;7.88;83.66
58761;BME280;44529;47.464;19.014;2023-02-22T03:42:18;100213.97;;;7.78;83.67
58761;BME280;44529;47.464;19.014;2023-02-22T03:45:23;100217.09;;;7.85;83.42
58761;BME280;44529;47.464;19.014;2023-02-22T03:51:39;100222.22;;;7.68;84.56
58761;BME280;44529;47.464;19.014;2023-02-22T03:54:42;100222.59;;;7.62;85.13
58761;BME280;44529;47.464;19.014;2023-02-22T03:57:48;100225.00;;;7.63;85.14
58761;BME280;44529;47.464;19.014;2023-02-22T04:00:51;100236.06;;;7.62;85.67
58761;BME280;44529;47.464;19.014;2023-02-22T04:03:54;100229.94;;;7.75;85.52
58761;BME280;44529;47.464;19.014;2023-02-22T04:06:57;100230.56;;;7.85;85.60
58761;BME280;44529;47.464;19.014;2023-02-22T04:10:01;100229.31;;;7.97;85.74
58761;BME280;44529;47.464;19.014;2023-02-22T04:13:04;100232.84;;;8.11;85.81
58761;BME280;44529;47.464;19.014;2023-02-22T04:16:12;100231.50;;;8.27;85.25
58761;BME280;44529;47.464;19.014;2023-02-22T04:19:14;100233.75;;;8.39;84.94
58761;BME280;44529;47.464;19.014;2023-02-22T04:22:18;100233.16;;;8.56;84.39
58761;BME280;44529;47.464;19.014;2023-02-22T04:25:21;100228.69;;;8.65;84.00
58761;BME280;44529;47.464;19.014;2023-02-22T04:28:24;100233.37;;;8.73;83.60
58761;BME280;44529;47.464;19.014;2023-02-22T04:31:27;100228.59;;;8.84;83.21
58761;BME280;44529;47.464;19.014;2023-02-22T04:34:30;100225.41;;;8.95;82.66
58761;BME280;44529;47.464;19.014;2023-02-22T04:37:32;100224.75;;;9.12;81.78
58761;BME280;44529;47.464;19.014;2023-02-22T04:40:37;100219.38;;;9.12;81.62
58761;BME280;44529;47.464;19.014;2023-02-22T04:43:40;100229.56;;;9.15;81.57
58761;BME280;44529;47.464;19.014;2023-02-22T04:46:44;100231.34;;;9.20;81.37
58761;BME280;44529;47.464;19.014;2023-02-22T04:49:48;100224.63;;;9.31;80.77
58761;BME280;44529;47.464;19.014;2023-02-22T04:52:50;100229.72;;;9.33;80.76
58761;BME280;44529;47.464;19.014;2023-02-22T04:55:53;100229.22;;;9.31;80.69
58761;BME280;44529;47.464;19.014;2023-02-22T04:58:55;100231.72;;;9.27;80.72
58761;BME280;44529;47.464;19.014;2023-02-22T05:01:58;100232.31;;;9.38;80.37
58761;BME280;44529;47.464;19.014;2023-02-22T05:05:02;100230.63;;;9.42;80.12
58761;BME280;44529;47.464;19.014;2023-02-22T05:08:04;100239.56;;;9.51;79.67
58761;BME280;44529;47.464;19.014;2023-02-22T05:11:06;100231.41;;;9.42;80.02
58761;BME280;44529;47.464;19.014;2023-02-22T05:14:09;100238.78;;;9.50;79.66
58761;BME280;44529;47.464;19.014;2023-02-22T05:17:11;100233.87;;;9.53;79.59
58761;BME280;44529;47.464;19.014;2023-02-22T05:20:23;100230.09;;;9.54;79.42
58761;BME280;44529;47.464;19.014;2023-02-22T05:23:28;100241.84;;;9.58;79.12
58761;BME280;44529;47.464;19.014;2023-02-22T05:26:31;100241.84;;;9.58;79.21
58761;BME280;44529;47.464;19.014;2023-02-22T05:29:33;100238.03;;;9.59;78.89
58761;BME280;44529;47.464;19.014;2023-02-22T05:32:35;100236.66;;;9.61;78.82
58761;BME280;44529;47.464;19.014;2023-02-22T05:35:38;100244.75;;;9.61;79.01
58761;BME280;44529;47.464;19.014;2023-02-22T05:38:40;100252.06;;;9.61;78.61
58761;BME280;44529;47.464;19.014;2023-02-22T05:41:44;100242.16;;;9.56;78.97
58761;BME280;44529;47.464;19.014;2023-02-22T05:44:47;100249.78;;;9.54;79.00
58761;BME280;44529;47.464;19.014;2023-02-22T05:47:50;100250.16;;;9.61;78.81
58761;BME280;44529;47.464;19.014;2023-02-22T05:50:52;100255.47;;;9.53;79.12
58761;BME280;44529;47.464;19.014;2023-02-22T05:53:55;100255.66;;;9.56;79.12
58761;BME280;44529;47.464;19.014;2023-02-22T05:56:57;100264.66;;;9.52;79.45
58761;BME280;44529;47.464;19.014;2023-02-22T06:00:00;100272.88;;;9.46;79.55
58761;BME280;44529;47.464;19.014;2023-02-22T06:03:05;100274.59;;;9.42;80.18
58761;BME280;44529;47.464;19.014;2023-02-22T06:06:08;100281.28;;;9.45;79.81
58761;BME280;44529;47.464;19.014;2023-02-22T06:09:11;100292.69;;;9.42;80.25
58761;BME280;44529;47.464;19.014;2023-02-22T06:12:13;100294.59;;;9.41;80.48
58761;BME280;44529;47.464;19.014;2023-02-22T06:15:18;100290.19;;;9.18;81.77
58761;BME280;44529;47.464;19.014;2023-02-22T06:18:21;100296.22;;;9.15;81.77
58761;BME280;44529;47.464;19.014;2023-02-22T06:21:28;100294.09;;;9.12;82.01
58761;BME280;44529;47.464;19.014;2023-02-22T06:24:31;100303.88;;;9.08;82.27
58761;BME280;44529;47.464;19.014;2023-02-22T06:27:34;100301.19;;;9.08;82.26
58761;BME280;44529;47.464;19.014;2023-02-22T06:30:36;100308.88;;;9.14;83.18
58761;BME280;44529;47.464;19.014;2023-02-22T06:33:38;100304.69;;;9.22;82.53
58761;BME280;44529;47.464;19.014;2023-02-22T06:36:41;100305.00;;;9.34;82.42
58761;BME280;44529;47.464;19.014;2023-02-22T06:39:43;100304.75;;;9.44;82.69
58761;BME280;44529;47.464;19.014;2023-02-22T06:42:47;100311.06;;;9.54;82.59
58761;BME280;44529;47.464;19.014;2023-02-22T06:45:51;100316.22;;;9.64;82.07
58761;BME280;44529;47.464;19.014;2023-02-22T06:48:53;100319.19;;;9.76;81.73
58761;BME280;44529;47.464;19.014;2023-02-22T06:51:56;100313.59;;;9.86;81.29
58761;BME280;44529;47.464;19.014;2023-02-22T06:54:58;100320.34;;;9.97;80.52
58761;BME280;44529;47.464;19.014;2023-02-22T06:58:02;100315.50;;;10.08;79.75
58761;BME280;44529;47.464;19.014;2023-02-22T07:01:04;100322.47;;;10.23;79.24
58761;BME280;44529;47.464;19.014;2023-02-22T07:04:09;100316.19;;;10.36;78.04
58761;BME280;44529;47.464;19.014;2023-02-22T07:07:12;100323.94;;;10.51;77.74
58761;BME280;44529;47.464;19.014;2023-02-22T07:13:22;100318.78;;;10.64;76.74
58761;BME280;44529;47.464;19.014;2023-02-22T07:16:25;100318.41;;;10.56;77.14
58761;BME280;44529;47.464;19.014;2023-02-22T07:19:27;100315.22;;;10.54;77.20
58761;BME280;44529;47.464;19.014;2023-02-22T07:22:30;100321.41;;;10.55;76.22
58761;BME280;44529;47.464;19.014;2023-02-22T07:25:33;100328.19;;;10.44;76.87
58761;BME280;44529;47.464;19.014;2023-02-22T07:28:35;100328.91;;;10.36;76.67
58761;BME280;44529;47.464;19.014;2023-02-22T07:31:38;100321.59;;;10.14;78.07
58761;BME280;44529;47.464;19.014;2023-02-22T07:34:40;100326.62;;;10.07;78.58
58761;BME280;44529;47.464;19.014;2023-02-22T07:37:44;100326.25;;;9.99;79.40
58761;BME280;44529;47.464;19.014;2023-02-22T07:40:46;100327.94;;;9.95;79.77
58761;BME280;44529;47.464;19.014;2023-02-22T07:43:48;100323.34;;;9.96;79.59
58761;BME280;44529;47.464;19.014;2023-02-22T07:46:51;100325.37;;;9.90;79.93
58761;BME280;44529;47.464;19.014;2023-02-22T07:49:54;100334.41;;;9.86;79.66
58761;BME280;44529;47.464;19.014;2023-02-22T07:52:59;100323.44;;;9.91;79.63
58761;BME280;44529;47.464;19.014;2023-02-22T07:56:04;100327.47;;;9.93;79.95
58761;BME280;44529;47.464;19.014;2023-02-22T07:59:06;100333.34;;;9.95;79.92
58761;BME280;44529;47.464;19.014;2023-02-22T08:02:14;100325.94;;;10.01;79.85
58761;BME280;44529;47.464;19.014;2023-02-22T08:05:18;100330.12;;;10.07;79.85
58761;BME280;44529;47.464;19.014;2023-02-22T08:08:21;100327.59;;;10.11;79.84
58761;BME280;44529;47.464;19.014;2023-02-22T08:11:24;100329.59;;;10.19;78.88
58761;BME280;44529;47.464;19.014;2023-02-22T08:14:27;100327.75;;;10.28;78.80
58761;BME280;44529;47.464;19.014;2023-02-22T08:17:29;100330.94;;;10.30;78.56
58761;BME280;44529;47.464;19.014;2023-02-22T08:20:31;100335.13;;;10.36;78.55
58761;BME280;44529;47.464;19.014;2023-02-22T08:23:34;100328.81;;;10.41;77.26
58761;BME280;44529;47.464;19.014;2023-02-22T08:26:36;100329.97;;;10.48;77.31
58761;BME280;44529;47.464;19.014;2023-02-22T08:29:38;100328.56;;;10.51;77.34
58761;BME280;44529;47.464;19.014;2023-02-22T08:32:41;100328.72;;;10.54;77.17
58761;BME280;44529;47.464;19.014;2023-02-22T08:35:45;100331.00;;;10.61;76.80
58761;BME280;44529;47.464;19.014;2023-02-22T08:38:50;100331.69;;;10.75;76.27
58761;BME280;44529;47.464;19.014;2023-02-22T08:41:52;100329.75;;;10.98;75.82
58761;BME280;44529;47.464;19.014;2023-02-22T08:44:55;100318.91;;;11.38;73.69
58761;BME280;44529;47.464;19.014;2023-02-22T08:47:58;100324.28;;;11.95;71.43
58761;BME280;44529;47.464;19.014;2023-02-22T08:51:00;100324.06;;;12.52;69.76
58761;BME280;44529;47.464;19.014;2023-02-22T08:54:03;100326.81;;;12.99;67.22
58761;BME280;44529;47.464;19.014;2023-02-22T08:57:07;100327.94;;;12.98;65.43
58761;BME280;44529;47.464;19.014;2023-02-22T09:00:10;100325.91;;;13.33;64.57
58761;BME280;44529;47.464;19.014;2023-02-22T09:03:14;100328.06;;;13.69;64.07
58761;BME280;44529;47.464;19.014;2023-02-22T09:06:17;100331.44;;;14.08;62.12
58761;BME280;44529;47.464;19.014;2023-02-22T09:09:19;100328.09;;;14.11;61.43
58761;BME280;44529;47.464;19.014;2023-02-22T09:12:22;100329.00;;;14.15;62.10
58761;BME280;44529;47.464;19.014;2023-02-22T09:15:25;100330.81;;;14.11;63.34
58761;BME280;44529;47.464;19.014;2023-02-22T09:18:28;100327.00;;;14.03;63.68
58761;BME280;44529;47.464;19.014;2023-02-22T09:21:43;100331.13;;;13.89;63.36
58761;BME280;44529;47.464;19.014;2023-02-22T09:24:45;100327.19;;;13.57;63.95
58761;BME280;44529;47.464;19.014;2023-02-22T09:27:51;100329.03;;;13.44;65.28
58761;BME280;44529;47.464;19.014;2023-02-22T09:30:54;100333.66;;;13.43;65.45
58761;BME280;44529;47.464;19.014;2023-02-22T09:33:57;100331.50;;;13.28;65.21
58761;BME280;44529;47.464;19.014;2023-02-22T09:37:00;100334.81;;;12.95;65.37
58761;BME280;44529;47.464;19.014;2023-02-22T09:40:02;100332.31;;;12.73;66.78
58761;BME280;44529;47.464;19.014;2023-02-22T09:43:52;100330.28;;;12.61;67.23
58761;BME280;44529;47.464;19.014;2023-02-22T09:46:57;100329.53;;;12.43;68.31
58761;BME280;44529;47.464;19.014;2023-02-22T09:50:12;100326.78;;;12.52;68.03
58761;BME280;44529;47.464;19.014;2023-02-22T09:53:31;100325.66;;;12.53;68.91
58761;BME280;44529;47.464;19.014;2023-02-22T09:56:37;100327.28;;;12.45;68.92
58761;BME280;44529;47.464;19.014;2023-02-22T10:00:02;100331.59;;;12.38;69.11
58761;BME280;44529;47.464;19.014;2023-02-22T10:03:32;100324.87;;;12.35;69.70
58761;BME280;44529;47.464;19.014;2023-02-22T10:06:36;100335.91;;;12.04;70.71
58761;BME280;44529;47.464;19.014;2023-02-22T10:09:41;100331.13;;;12.10;71.56
58761;BME280;44529;47.464;19.014;2023-02-22T10:16:01;100328.41;;;12.10;70.65
58761;BME280;44529;47.464;19.014;2023-02-22T10:19:47;100334.31;;;12.38;70.59
58761;BME280;44529;47.464;19.014;2023-02-22T10:26:21;100325.47;;;12.67;69.74
58761;BME280;44529;47.464;19.014;2023-02-22T10:32:44;100320.06;;;12.58;70.30
58761;BME280;44529;47.464;19.014;2023-02-22T10:35:50;100318.78;;;12.64;69.62
58761;BME280;44529;47.464;19.014;2023-02-22T10:38:57;100313.56;;;12.42;68.46
58761;BME280;44529;47.464;19.014;2023-02-22T10:42:03;100312.63;;;12.38;69.37
58761;BME280;44529;47.464;19.014;2023-02-22T10:45:24;100316.28;;;12.33;70.27
58761;BME280;44529;47.464;19.014;2023-02-22T10:48:30;100312.16;;;12.10;70.39
58761;BME280;44529;47.464;19.014;2023-02-22T10:51:33;100307.06;;;12.00;71.68
58761;BME280;44529;47.464;19.014;2023-02-22T10:54:40;100301.78;;;12.03;70.99
58761;BME280;44529;47.464;19.014;2023-02-22T10:57:45;100303.72;;;12.11;70.78
58761;BME280;44529;47.464;19.014;2023-02-22T11:00:50;100299.72;;;12.09;71.85
58761;BME280;44529;47.464;19.014;2023-02-22T11:10:07;100288.41;;;12.15;70.82
58761;BME280;44529;47.464;19.014;2023-02-22T11:13:37;100286.94;;;12.27;70.88
58761;BME280;44529;47.464;19.014;2023-02-22T11:16:51;100280.25;;;12.33;70.08
58761;BME280;44529;47.464;19.014;2023-02-22T11:19:55;100290.44;;;12.44;68.91
58761;BME280;44529;47.464;19.014;2023-02-22T11:22:59;100289.31;;;12.45;69.44
58761;BME280;44529;47.464;19.014;2023-02-22T11:26:11;100282.91;;;12.59;69.54
58761;BME280;44529;47.464;19.014;2023-02-22T11:29:32;100284.44;;;12.68;68.84
58761;BME280;44529;47.464;19.014;2023-02-22T11:32:35;100278.94;;;12.56;67.66
58761;BME280;44529;47.464;19.014;2023-02-22T11:36:01;100279.34;;;12.67;68.74
58761;BME280;44529;47.464;19.014;2023-02-22T11:39:25;100279.91;;;12.90;68.44
58761;BME280;44529;47.464;19.014;2023-02-22T11:42:28;100272.19;;;13.00;67.60
58761;BME280;44529;47.464;19.014;2023-02-22T11:45:32;100276.19;;;12.94;67.56
58761;BME280;44529;47.464;19.014;2023-02-22T11:48:43;100277.81;;;12.95;68.72
58761;BME280;44529;47.464;19.014;2023-02-22T11:55:26;100272.84;;;12.97;67.45
58761;BME280;44529;47.464;19.014;2023-02-22T12:06:01;100269.12;;;12.72;68.21
58761;BME280;44529;47.464;19.014;2023-02-22T12:09:23;100262.56;;;12.73;67.99
58761;BME280;44529;47.464;19.014;2023-02-22T12:25:26;100252.25;;;12.58;69.35
58761;BME280;44529;47.464;19.014;2023-02-22T12:28:32;100244.75;;;12.55;68.84
58761;BME280;44529;47.464;19.014;2023-02-22T12:31:41;100252.12;;;12.46;69.30
58761;BME280;44529;47.464;19.014;2023-02-22T12:35:15;100243.66;;;12.47;69.91
58761;BME280;44529;47.464;19.014;2023-02-22T12:38:27;100240.47;;;12.54;68.95
58761;BME280;44529;47.464;19.014;2023-02-22T12:41:41;100242.84;;;12.56;70.19
58761;BME280;44529;47.464;19.014;2023-02-22T12:44:53;100233.59;;;12.57;69.62
58761;BME280;44529;47.464;19.014;2023-02-22T12:48:04;100236.16;;;12.53;70.12
58761;BME280;44529;47.464;19.014;2023-02-22T12:57:47;100232.31;;;12.54;71.10
58761;BME280;44529;47.464;19.014;2023-02-22T13:01:05;100229.78;;;12.49;70.67
58761;BME280;44529;47.464;19.014;2023-02-22T13:04:13;100222.97;;;12.43;71.16
58761;BME280;44529;47.464;19.014;2023-02-22T13:10:39;100219.75;;;12.50;71.14
58761;BME280;44529;47.464;19.014;2023-02-22T13:24:23;100215.28;;;12.45;70.84
58761;BME280;44529;47.464;19.014;2023-02-22T13:30:38;100218.62;;;12.42;71.00
58761;BME280;44529;47.464;19.014;2023-02-22T13:37:48;100226.44;;;12.52;70.22
58761;BME280;44529;47.464;19.014;2023-02-22T13:54:46;100222.47;;;12.41;70.71
58761;BME280;44529;47.464;19.014;2023-02-22T13:58:05;100216.13;;;12.37;71.12
58761;BME280;44529;47.464;19.014;2023-02-22T14:04:43;100218.62;;;12.42;71.08
58761;BME280;44529;47.464;19.014;2023-02-22T14:07:47;100214.22;;;12.29;71.64
58761;BME280;44529;47.464;19.014;2023-02-22T14:17:21;100221.25;;;12.21;72.25
58761;BME280;44529;47.464;19.014;2023-02-22T14:20:36;100211.03;;;12.27;72.55
58761;BME280;44529;47.464;19.014;2023-02-22T14:24:06;100212.00;;;12.22;72.92
58761;BME280;44529;47.464;19.014;2023-02-22T14:27:09;100211.50;;;12.29;72.84
58761;BME280;44529;47.464;19.014;2023-02-22T14:30:33;100208.16;;;12.32;73.14
58761;BME280;44529;47.464;19.014;2023-02-22T14:37:06;100209.44;;;12.26;72.18
58761;BME280;44529;47.464;19.014;2023-02-22T14:40:22;100202.91;;;12.27;72.54
58761;BME280;44529;47.464;19.014;2023-02-22T14:43:27;100207.66;;;12.30;70.83
58761;BME280;44529;47.464;19.014;2023-02-22T14:46:33;100209.44;;;12.26;71.28
58761;BME280;44529;47.464;19.014;2023-02-22T14:49:42;100203.88;;;12.31;68.03
58761;BME280;44529;47.464;19.014;2023-02-22T14:52:47;100203.56;;;12.24;69.96
58761;BME280;44529;47.464;19.014;2023-02-22T14:56:00;100199.56;;;12.21;68.97
58761;BME280;44529;47.464;19.014;2023-02-22T14:59:25;100195.09;;;12.16;69.70
58761;BME280;44529;47.464;19.014;2023-02-22T15:02:36;100199.09;;;12.19;66.99
58761;BME280;44529;47.464;19.014;2023-02-22T15:05:39;100198.16;;;12.24;67.22
58761;BME280;44529;47.464;19.014;2023-02-22T15:08:43;100194.44;;;12.28;66.90
58761;BME280;44529;47.464;19.014;2023-02-22T15:15:20;100191.41;;;12.30;65.26
58761;BME280;44529;47.464;19.014;2023-02-22T15:19:02;100196.03;;;12.29;65.09
58761;BME280;44529;47.464;19.014;2023-02-22T15:22:18;100193.03;;;12.31;65.22
58761;BME280;44529;47.464;19.014;2023-02-22T15:25:25;100193.03;;;12.31;64.39
58761;BME280;44529;47.464;19.014;2023-02-22T15:28:29;100185.34;;;12.33;63.50
58761;BME280;44529;47.464;19.014;2023-02-22T15:31:34;100190.28;;;12.39;63.26
58761;BME280;44529;47.464;19.014;2023-02-22T15:34:39;100190.91;;;12.36;62.32
58761;BME280;44529;47.464;19.014;2023-02-22T15:37:45;100191.56;;;12.33;61.53
58761;BME280;44529;47.464;19.014;2023-02-22T15:40:58;100191.56;;;12.33;61.66
58761;BME280;44529;47.464;19.014;2023-02-22T15:44:08;100189.00;;;12.37;60.97
58761;BME280;44529;47.464;19.014;2023-02-22T15:47:27;100186.94;;;12.34;60.95
58761;BME280;44529;47.464;19.014;2023-02-22T15:50:32;100184.88;;;12.31;61.36
58761;BME280;44529;47.464;19.014;2023-02-22T15:53:48;100182.69;;;12.24;62.09
58761;BME280;44529;47.464;19.014;2023-02-22T15:56:52;100184.09;;;12.22;62.52
58761;BME280;44529;47.464;19.014;2023-02-22T15:59:58;100186.97;;;12.16;62.90
58761;BME280;44529;47.464;19.014;2023-02-22T16:03:06;100188.91;;;12.16;63.62
58761;BME280;44529;47.464;19.014;2023-02-22T16:06:23;100182.22;;;12.13;64.35
58761;BME280;44529;47.464;19.014;2023-02-22T16:09:30;100185.56;;;12.19;65.34
58761;BME280;44529;47.464;19.014;2023-02-22T16:12:34;100190.31;;;12.22;67.59
58761;BME280;44529;47.464;19.014;2023-02-22T16:15:37;100183.81;;;12.14;69.35
58761;BME280;44529;47.464;19.014;2023-02-22T16:18:39;100196.87;;;12.12;70.45
58761;BME280;44529;47.464;19.014;2023-02-22T16:21:49;100190.22;;;12.01;71.59
58761;BME280;44529;47.464;19.014;2023-02-22T16:25:31;100192.28;;;11.96;71.44
58761;BME280;44529;47.464;19.014;2023-02-22T16:28:33;100194.38;;;11.90;71.63
58761;BME280;44529;47.464;19.014;2023-02-22T16:31:38;100201.41;;;11.82;73.45
58761;BME280;44529;47.464;19.014;2023-02-22T16:34:41;100199.00;;;11.81;73.15
58761;BME280;44529;47.464;19.014;2023-02-22T16:40:52;100202.50;;;11.73;73.71
58761;BME280;44529;47.464;19.014;2023-02-22T16:43:56;100208.69;;;11.64;75.07
58761;BME280;44529;47.464;19.014;2023-02-22T16:46:59;100210.78;;;11.59;75.78
58761;BME280;44529;47.464;19.014;2023-02-22T16:50:02;100210.63;;;11.55;75.55
58761;BME280;44529;47.464;19.014;2023-02-22T16:53:04;100217.81;;;11.60;74.83
58761;BME280;44529;47.464;19.014;2023-02-22T16:56:08;100210.63;;;11.55;74.57
58761;BME280;44529;47.464;19.014;2023-02-22T16:59:13;100220.50;;;11.51;73.75
58761;BME280;44529;47.464;19.014;2023-02-22T17:02:17;100218.91;;;11.50;72.79
58761;BME280;44529;47.464;19.014;2023-02-22T17:05:20;100214.13;;;11.47;72.84
58761;BME280;44529;47.464;19.014;2023-02-22T17:08:22;100217.47;;;11.44;73.09
58761;BME280;44529;47.464;19.014;2023-02-22T17:11:25;100226.72;;;11.43;72.70
58761;BME280;44529;47.464;19.014;2023-02-22T17:14:30;100214.28;;;11.42;72.75
58761;BME280;44529;47.464;19.014;2023-02-22T17:17:34;100221.62;;;11.42;72.20
58761;BME280;44529;47.464;19.014;2023-02-22T17:20:37;100226.06;;;11.37;72.09
58761;BME280;44529;47.464;19.014;2023-02-22T17:23:39;100217.94;;;11.29;73.62
58761;BME280;44529;47.464;19.014;2023-02-22T17:26:41;100226.38;;;11.27;74.19
58761;BME280;44529;47.464;19.014;2023-02-22T17:29:44;100228.59;;;11.25;74.59
58761;BME280;44529;47.464;19.014;2023-02-22T17:32:48;100221.75;;;11.28;74.82
58761;BME280;44529;47.464;19.014;2023-02-22T17:35:52;100227.00;;;11.24;76.09
58761;BME280;44529;47.464;19.014;2023-02-22T17:38:55;100228.25;;;11.09;78.55
58761;BME280;44529;47.464;19.014;2023-02-22T17:41:57;100212.63;;;11.06;78.20
58761;BME280;44529;47.464;19.014;2023-02-22T17:45:00;100215.66;;;11.05;78.63
58761;BME280;44529;47.464;19.014;2023-02-22T17:48:02;100221.88;;;11.05;78.64
58761;BME280;44529;47.464;19.014;2023-02-22T17:51:07;100213.87;;;11.00;79.47
58761;BME280;44529;47.464;19.014;2023-02-22T17:54:11;100211.66;;;10.94;81.29
58761;BME280;44529;47.464;19.014;2023-02-22T17:57:13;100214.53;;;10.89;81.89
58761;BME280;44529;47.464;19.014;2023-02-22T18:00:16;100212.44;;;10.85;81.14
58761;BME280;44529;47.464;19.014;2023-02-22T18:03:25;100215.28;;;10.80;81.79
58761;BME280;44529;47.464;19.014;2023-02-22T18:06:29;100214.31;;;10.76;83.04
58761;BME280;44529;47.464;19.014;2023-02-22T18:09:33;100214.59;;;10.75;83.13
58761;BME280;44529;47.464;19.014;2023-02-22T18:12:38;100209.53;;;10.73;83.31
58761;BME280;44529;47.464;19.014;2023-02-22T18:15:41;100214.31;;;10.76;81.30
58761;BME280;44529;47.464;19.014;2023-02-22T18:18:44;100204.78;;;10.79;79.30